createdAt,value
2018-09-12T00:05:03.815Z,21.6
2018-09-12T00:21:51.347Z,21.6
2018-09-12T00:38:39.977Z,21.6
2018-09-12T00:55:28.546Z,21.6
2018-09-12T01:12:17.846Z,21.6
2018-09-12T01:29:06.089Z,21.6
2018-09-12T01:45:54.554Z,21.6
2018-09-12T02:02:43.146Z,21.3
2018-09-12T02:19:31.800Z,21.3
2018-09-12T02:36:20.468Z,21.3
2018-09-12T02:53:09.157Z,21.3
2018-09-12T03:09:57.715Z,21.3
2018-09-12T03:26:47.153Z,21.3
2018-09-12T03:43:34.925Z,21.3
2018-09-12T04:00:23.566Z,21.3
2018-09-12T04:17:12.065Z,21.3
2018-09-12T04:34:00.625Z,21.3
2018-09-12T04:50:49.102Z,21.3
2018-09-12T05:07:37.584Z,21.3
2018-09-12T05:24:26.079Z,21.3
2018-09-12T05:41:14.438Z,21.0
2018-09-12T05:58:02.816Z,21.0
2018-09-12T06:14:50.969Z,21.0
2018-09-12T06:31:39.363Z,21.0
2018-09-12T06:48:27.679Z,21.0
2018-09-12T07:05:16.012Z,21.3
2018-09-12T07:22:04.409Z,21.3
2018-09-12T07:38:52.779Z,21.3
2018-09-12T07:55:41.956Z,21.6
2018-09-12T08:12:30.954Z,21.6
2018-09-12T08:29:19.959Z,21.9
2018-09-12T08:46:09.304Z,21.9
2018-09-12T09:02:58.914Z,21.9
2018-09-12T09:19:48.201Z,21.9
2018-09-12T09:36:37.710Z,21.9
2018-09-12T09:53:27.209Z,21.9
2018-09-12T10:10:16.869Z,22.2
2018-09-12T10:27:06.827Z,22.2
2018-09-12T10:37:12.270Z,21.6
2018-09-12T10:54:01.058Z,21.3
2018-09-12T11:10:49.393Z,21.0
2018-09-12T11:27:37.495Z,21.0
2018-09-12T11:44:25.473Z,21.0
2018-09-12T12:01:13.159Z,20.3
2018-09-12T12:18:00.734Z,20.3
2018-09-12T12:34:48.468Z,20.3
2018-09-12T12:51:35.878Z,20.0
2018-09-12T13:08:23.201Z,20.3
2018-09-12T13:25:10.830Z,20.3
2018-09-12T13:41:58.642Z,20.3
2018-09-12T13:58:46.187Z,20.3
2018-09-12T14:15:33.677Z,20.0
2018-09-12T14:32:21.891Z,20.3
2018-09-12T14:49:09.037Z,20.6
2018-09-12T15:05:57.163Z,20.6
2018-09-12T15:22:45.362Z,20.6
2018-09-12T15:39:33.616Z,20.6
2018-09-12T15:56:21.634Z,21.0
2018-09-12T16:13:09.814Z,20.6
2018-09-12T16:29:58.033Z,20.6
2018-09-12T16:46:46.030Z,20.6
2018-09-12T17:03:34.044Z,20.6
2018-09-12T17:20:22.164Z,20.6
2018-09-12T17:37:10.447Z,20.6
2018-09-12T17:53:58.637Z,20.6
2018-09-12T18:10:46.791Z,20.3
2018-09-12T18:27:34.759Z,20.3
2018-09-12T18:44:22.147Z,20.3
2018-09-12T19:01:09.403Z,20.3
2018-09-12T19:17:56.714Z,20.3
2018-09-12T19:34:44.102Z,20.3
2018-09-12T19:51:31.176Z,20.3
2018-09-12T20:08:18.226Z,20.0
2018-09-12T20:25:04.937Z,20.0
2018-09-12T20:41:51.978Z,20.0
2018-09-12T20:58:38.575Z,19.7
2018-09-12T21:05:21.149Z,19.0
2018-09-12T21:22:07.017Z,19.4
2018-09-12T21:38:53.021Z,18.7
2018-09-12T21:55:38.115Z,18.4
2018-09-12T22:05:41.222Z,19.0
2018-09-12T22:22:27.288Z,19.4
2018-09-12T22:39:13.565Z,19.4
2018-09-12T22:55:59.767Z,19.4
2018-09-12T23:12:46.181Z,19.4
2018-09-12T23:29:32.673Z,19.7
2018-09-12T23:46:19.286Z,19.7
